sensor_id;sensor_type;location;lat;lon;timestamp;pressure;altitude;pressure_sealevel;temperature;humidity
44872;BME280;30602;51.060;17.226;2023-04-07T00:04:02;101796.52;;;3.09;89.52
44872;BME280;30602;51.060;17.226;2023-04-07T00:08:07;101792.22;;;3.05;90.16
44872;BME280;30602;51.060;17.226;2023-04-07T00:11:52;101789.91;;;3.00;90.21
44872;BME280;30602;51.060;17.226;2023-04-07T00:15:38;101786.08;;;3.01;90.45
44872;BME280;30602;51.060;17.226;2023-04-07T00:20:25;101775.96;;;2.99;90.42
44872;BME280;30602;51.060;17.226;2023-04-07T00:24:00;101775.49;;;3.10;90.29
44872;BME280;30602;51.060;17.226;2023-04-07T00:27:56;101772.79;;;3.05;90.42
44872;BME280;30602;51.060;17.226;2023-04-07T00:31:36;101773.08;;;3.02;90.41
44872;BME280;30602;51.060;17.226;2023-04-07T00:35:30;101768.75;;;3.00;90.97
44872;BME280;30602;51.060;17.226;2023-04-07T00:38:53;101762.44;;;2.92;90.90
44872;BME280;30602;51.060;17.226;2023-04-07T00:42:23;101764.79;;;2.86;91.09
44872;BME280;30602;51.060;17.226;2023-04-07T00:46:37;101756.86;;;2.88;91.05
44872;BME280;30602;51.060;17.226;2023-04-07T00:50:27;101751.82;;;2.83;90.91
44872;BME280;30602;51.060;17.226;2023-04-07T00:54:25;101738.04;;;2.85;91.45
44872;BME280;30602;51.060;17.226;2023-04-07T00:58:10;101732.91;;;2.83;91.52
44872;BME280;30602;51.060;17.226;2023-04-07T01:06:44;101736.26;;;2.78;91.07
44872;BME280;30602;51.060;17.226;2023-04-07T01:10:13;101730.50;;;2.79;91.17
44872;BME280;30602;51.060;17.226;2023-04-07T01:13:50;101741.47;;;2.74;91.23
44872;BME280;30602;51.060;17.226;2023-04-07T01:17:34;101739.28;;;2.70;91.45
44872;BME280;30602;51.060;17.226;2023-04-07T01:21:06;101740.88;;;2.75;91.93
44872;BME280;30602;51.060;17.226;2023-04-07T01:33:01;101733.46;;;2.55;92.85
44872;BME280;30602;51.060;17.226;2023-04-07T01:36:49;101729.99;;;2.54;93.23
44872;BME280;30602;51.060;17.226;2023-04-07T01:40:58;101725.34;;;2.51;93.90
44872;BME280;30602;51.060;17.226;2023-04-07T01:44:27;101723.64;;;2.49;94.13
44872;BME280;30602;51.060;17.226;2023-04-07T01:47:50;101722.54;;;2.43;94.55
44872;BME280;30602;51.060;17.226;2023-04-07T01:52:09;101722.80;;;2.46;95.01
44872;BME280;30602;51.060;17.226;2023-04-07T01:56:35;101710.55;;;2.39;95.32
44872;BME280;30602;51.060;17.226;2023-04-07T02:00:40;101705.77;;;2.42;95.54
44872;BME280;30602;51.060;17.226;2023-04-07T02:04:10;101703.30;;;2.38;95.96
44872;BME280;30602;51.060;17.226;2023-04-07T02:11:07;101710.59;;;2.28;96.84
44872;BME280;30602;51.060;17.226;2023-04-07T02:15:24;101709.38;;;2.37;96.93
44872;BME280;30602;51.060;17.226;2023-04-07T02:19:19;101706.24;;;2.34;96.17
44872;BME280;30602;51.060;17.226;2023-04-07T02:23:38;101702.78;;;2.33;96.70
44872;BME280;30602;51.060;17.226;2023-04-07T02:27:06;101700.73;;;2.28;96.88
44872;BME280;30602;51.060;17.226;2023-04-07T02:31:08;101698.55;;;2.23;96.84
44872;BME280;30602;51.060;17.226;2023-04-07T02:34:54;101696.05;;;2.22;97.17
44872;BME280;30602;51.060;17.226;2023-04-07T02:38:24;101695.11;;;2.20;97.33
44872;BME280;30602;51.060;17.226;2023-04-07T02:41:48;101694.59;;;2.16;97.52
44872;BME280;30602;51.060;17.226;2023-04-07T02:45:45;101687.85;;;2.21;97.21
44872;BME280;30602;51.060;17.226;2023-04-07T02:49:04;101684.02;;;2.22;96.91
44872;BME280;30602;51.060;17.226;2023-04-07T02:52:52;101686.19;;;2.23;96.93
44872;BME280;30602;51.060;17.226;2023-04-07T02:56:51;101683.67;;;2.22;96.84
44872;BME280;30602;51.060;17.226;2023-04-07T03:00:48;101685.85;;;2.18;96.69
44872;BME280;30602;51.060;17.226;2023-04-07T03:04:31;101690.50;;;2.15;96.86
44872;BME280;30602;51.060;17.226;2023-04-07T03:08:54;101693.28;;;2.13;96.72
44872;BME280;30602;51.060;17.226;2023-04-07T03:13:09;101695.08;;;2.19;96.95
44872;BME280;30602;51.060;17.226;2023-04-07T03:16:39;101693.68;;;2.20;97.07
44872;BME280;30602;51.060;17.226;2023-04-07T03:20:20;101692.28;;;2.19;96.95
44872;BME280;30602;51.060;17.226;2023-04-07T03:28:11;101699.88;;;2.22;96.56
44872;BME280;30602;51.060;17.226;2023-04-07T03:32:29;101702.46;;;2.09;96.07
44872;BME280;30602;51.060;17.226;2023-04-07T03:35:54;101704.48;;;2.12;96.21
44872;BME280;30602;51.060;17.226;2023-04-07T03:39:21;101694.11;;;2.03;96.29
44872;BME280;30602;51.060;17.226;2023-04-07T03:42:44;101692.99;;;2.08;96.61
44872;BME280;30602;51.060;17.226;2023-04-07T03:46:54;101692.61;;;2.04;96.81
44872;BME280;30602;51.060;17.226;2023-04-07T03:50:13;101678.73;;;2.10;97.25
44872;BME280;30602;51.060;17.226;2023-04-07T03:53:42;101682.18;;;2.02;97.39
44872;BME280;30602;51.060;17.226;2023-04-07T03:57:26;101679.43;;;2.07;97.78
44872;BME280;30602;51.060;17.226;2023-04-07T04:00:49;101677.82;;;2.06;97.88
44872;BME280;30602;51.060;17.226;2023-04-07T04:04:09;101678.30;;;2.03;97.92
44872;BME280;30602;51.060;17.226;2023-04-07T04:07:33;101676.24;;;2.03;98.05
44872;BME280;30602;51.060;17.226;2023-04-07T04:11:22;101678.27;;;2.03;98.36
44872;BME280;30602;51.060;17.226;2023-04-07T04:15:42;101678.91;;;2.23;98.63
44872;BME280;30602;51.060;17.226;2023-04-07T04:19:50;101665.62;;;2.10;97.92
44872;BME280;30602;51.060;17.226;2023-04-07T04:23:15;101688.52;;;2.14;97.95
44872;BME280;30602;51.060;17.226;2023-04-07T04:26:47;101688.20;;;2.13;98.12
44872;BME280;30602;51.060;17.226;2023-04-07T04:30:24;101691.52;;;2.08;98.12
44872;BME280;30602;51.060;17.226;2023-04-07T04:34:08;101681.63;;;2.08;98.59
44872;BME280;30602;51.060;17.226;2023-04-07T04:37:56;101685.32;;;2.10;98.27
44872;BME280;30602;51.060;17.226;2023-04-07T04:41:54;101686.60;;;2.07;97.72
44872;BME280;30602;51.060;17.226;2023-04-07T04:45:48;101685.14;;;2.07;97.67
44872;BME280;30602;51.060;17.226;2023-04-07T04:49:16;101681.15;;;2.12;97.38
44872;BME280;30602;51.060;17.226;2023-04-07T04:52:38;101683.84;;;2.12;97.34
44872;BME280;30602;51.060;17.226;2023-04-07T04:56:00;101686.58;;;2.12;96.79
44872;BME280;30602;51.060;17.226;2023-04-07T05:00:18;101691.29;;;2.16;96.83
44872;BME280;30602;51.060;17.226;2023-04-07T05:03:58;101690.27;;;2.17;96.30
44872;BME280;30602;51.060;17.226;2023-04-07T05:08:14;101688.35;;;2.17;96.19
44872;BME280;30602;51.060;17.226;2023-04-07T05:11:44;101668.23;;;2.08;96.03
44872;BME280;30602;51.060;17.226;2023-04-07T05:15:07;101678.55;;;2.19;95.73
44872;BME280;30602;51.060;17.226;2023-04-07T05:18:47;101680.02;;;2.18;96.16
44872;BME280;30602;51.060;17.226;2023-04-07T05:22:10;101680.24;;;2.16;96.14
44872;BME280;30602;51.060;17.226;2023-04-07T05:25:33;101690.58;;;2.20;96.12
44872;BME280;30602;51.060;17.226;2023-04-07T05:28:57;101692.73;;;2.21;96.43
44872;BME280;30602;51.060;17.226;2023-04-07T05:32:20;101688.79;;;2.22;96.84
44872;BME280;30602;51.060;17.226;2023-04-07T05:35:54;101684.92;;;2.14;96.82
44872;BME280;30602;51.060;17.226;2023-04-07T05:39:22;101688.34;;;2.19;96.57
44872;BME280;30602;51.060;17.226;2023-04-07T05:42:57;101693.30;;;2.18;96.75
44872;BME280;30602;51.060;17.226;2023-04-07T05:46:43;101689.08;;;2.18;96.75
44872;BME280;30602;51.060;17.226;2023-04-07T05:50:50;101693.87;;;2.22;96.59
44872;BME280;30602;51.060;17.226;2023-04-07T05:54:11;101692.05;;;2.25;96.29
44872;BME280;30602;51.060;17.226;2023-04-07T05:58:40;101691.65;;;2.25;96.40
44872;BME280;30602;51.060;17.226;2023-04-07T06:02:16;101692.02;;;2.24;96.44
44872;BME280;30602;51.060;17.226;2023-04-07T06:07:12;101688.64;;;2.20;96.53
44872;BME280;30602;51.060;17.226;2023-04-07T06:11:25;101690.30;;;2.41;96.86
44872;BME280;30602;51.060;17.226;2023-04-07T06:15:03;101691.27;;;2.39;96.29
44872;BME280;30602;51.060;17.226;2023-04-07T06:18:39;101691.28;;;2.35;96.76
44872;BME280;30602;51.060;17.226;2023-04-07T06:22:18;101691.62;;;2.33;96.97
44872;BME280;30602;51.060;17.226;2023-04-07T06:25:47;101695.94;;;2.32;97.39
44872;BME280;30602;51.060;17.226;2023-04-07T06:29:10;101697.87;;;2.36;97.62
44872;BME280;30602;51.060;17.226;2023-04-07T06:32:35;101688.41;;;2.31;98.00
44872;BME280;30602;51.060;17.226;2023-04-07T06:36:49;101690.08;;;2.32;98.04
44872;BME280;30602;51.060;17.226;2023-04-07T06:41:23;101683.95;;;2.30;97.92
44872;BME280;30602;51.060;17.226;2023-04-07T06:44:55;101675.65;;;2.28;98.04
44872;BME280;30602;51.060;17.226;2023-04-07T06:48:53;101682.28;;;2.38;98.63
44872;BME280;30602;51.060;17.226;2023-04-07T06:52:36;101679.66;;;2.35;99.05
44872;BME280;30602;51.060;17.226;2023-04-07T06:56:28;101678.14;;;2.36;99.45
44872;BME280;30602;51.060;17.226;2023-04-07T07:00:17;101677.82;;;2.32;99.60
44872;BME280;30602;51.060;17.226;2023-04-07T07:04:14;101673.70;;;2.33;99.96
44872;BME280;30602;51.060;17.226;2023-04-07T07:08:16;101669.64;;;2.38;99.66
44872;BME280;30602;51.060;17.226;2023-04-07T07:11:41;101668.77;;;2.46;99.51
44872;BME280;30602;51.060;17.226;2023-04-07T07:15:47;101669.98;;;2.52;99.89
44872;BME280;30602;51.060;17.226;2023-04-07T07:19:55;101669.56;;;2.58;99.74
44872;BME280;30602;51.060;17.226;2023-04-07T07:23:48;101671.34;;;2.43;99.70
44872;BME280;30602;51.060;17.226;2023-04-07T07:31:11;101683.70;;;2.49;99.16
44872;BME280;30602;51.060;17.226;2023-04-07T07:35:08;101691.98;;;2.54;99.57
44872;BME280;30602;51.060;17.226;2023-04-07T07:38:58;101691.85;;;2.51;99.16
44872;BME280;30602;51.060;17.226;2023-04-07T07:42:26;101697.47;;;2.53;99.05
44872;BME280;30602;51.060;17.226;2023-04-07T07:46:53;101702.13;;;2.54;99.62
44872;BME280;30602;51.060;17.226;2023-04-07T07:50:13;101685.69;;;2.46;98.79
44872;BME280;30602;51.060;17.226;2023-04-07T07:53:43;101702.13;;;2.59;99.07
44872;BME280;30602;51.060;17.226;2023-04-07T07:57:08;101707.05;;;2.54;98.90
44872;BME280;30602;51.060;17.226;2023-04-07T08:01:04;101690.66;;;2.60;99.00
44872;BME280;30602;51.060;17.226;2023-04-07T08:04:28;101704.43;;;2.77;99.24
44872;BME280;30602;51.060;17.226;2023-04-07T08:08:14;101701.75;;;2.86;98.70
44872;BME280;30602;51.060;17.226;2023-04-07T08:12:10;101707.23;;;2.79;97.62
44872;BME280;30602;51.060;17.226;2023-04-07T08:15:38;101697.10;;;2.77;97.49
44872;BME280;30602;51.060;17.226;2023-04-07T08:19:25;101704.01;;;2.87;97.34
44872;BME280;30602;51.060;17.226;2023-04-07T08:23:11;101706.92;;;2.93;97.81
44872;BME280;30602;51.060;17.226;2023-04-07T08:27:12;101698.37;;;2.87;96.97
44872;BME280;30602;51.060;17.226;2023-04-07T08:30:45;101693.48;;;2.92;96.45
44872;BME280;30602;51.060;17.226;2023-04-07T08:34:23;101687.52;;;2.93;96.32
44872;BME280;30602;51.060;17.226;2023-04-07T08:38:04;101691.24;;;2.98;96.08
44872;BME280;30602;51.060;17.226;2023-04-07T08:41:40;101695.45;;;3.11;96.27
44872;BME280;30602;51.060;17.226;2023-04-07T08:45:21;101694.17;;;3.17;96.80
44872;BME280;30602;51.060;17.226;2023-04-07T08:48:49;101695.13;;;3.22;96.28
44872;BME280;30602;51.060;17.226;2023-04-07T08:56:37;101674.34;;;3.13;95.76
44872;BME280;30602;51.060;17.226;2023-04-07T09:00:03;101696.84;;;3.27;95.47
44872;BME280;30602;51.060;17.226;2023-04-07T09:04:22;101699.62;;;3.32;95.19
44872;BME280;30602;51.060;17.226;2023-04-07T09:08:31;101697.33;;;3.28;94.78
44872;BME280;30602;51.060;17.226;2023-04-07T09:11:50;101699.84;;;3.39;95.62
44872;BME280;30602;51.060;17.226;2023-04-07T09:16:01;101695.44;;;3.36;95.11
44872;BME280;30602;51.060;17.226;2023-04-07T09:19:30;101697.69;;;3.40;95.18
44872;BME280;30602;51.060;17.226;2023-04-07T09:23:38;101693.45;;;3.36;94.97
44872;BME280;30602;51.060;17.226;2023-04-07T09:27:14;101690.13;;;3.33;94.68
44872;BME280;30602;51.060;17.226;2023-04-07T09:31:49;101690.52;;;3.42;95.26
44872;BME280;30602;51.060;17.226;2023-04-07T09:35:29;101693.66;;;3.48;95.27
44872;BME280;30602;51.060;17.226;2023-04-07T09:43:40;101690.35;;;3.53;95.33
44872;BME280;30602;51.060;17.226;2023-04-07T09:47:59;101693.05;;;3.51;95.44
44872;BME280;30602;51.060;17.226;2023-04-07T09:52:09;101689.66;;;3.47;95.05
44872;BME280;30602;51.060;17.226;2023-04-07T09:55:59;101688.36;;;3.62;95.07
44872;BME280;30602;51.060;17.226;2023-04-07T10:00:14;101686.38;;;3.66;94.80
44872;BME280;30602;51.060;17.226;2023-04-07T10:04:53;101684.06;;;3.75;95.27
44872;BME280;30602;51.060;17.226;2023-04-07T10:08:39;101684.84;;;3.90;95.16
44872;BME280;30602;51.060;17.226;2023-04-07T10:13:09;101686.52;;;3.85;94.43
44872;BME280;30602;51.060;17.226;2023-04-07T10:16:56;101679.98;;;3.81;94.41
44872;BME280;30602;51.060;17.226;2023-04-07T10:20:28;101680.67;;;3.77;95.13
44872;BME280;30602;51.060;17.226;2023-04-07T10:24:32;101677.72;;;3.87;95.32
44872;BME280;30602;51.060;17.226;2023-04-07T10:28:02;101676.67;;;3.83;94.66
44872;BME280;30602;51.060;17.226;2023-04-07T10:31:53;101674.80;;;3.83;94.50
44872;BME280;30602;51.060;17.226;2023-04-07T10:36:12;101673.41;;;3.82;95.05
44872;BME280;30602;51.060;17.226;2023-04-07T10:40:25;101676.76;;;3.86;95.40
44872;BME280;30602;51.060;17.226;2023-04-07T10:43:38;101677.82;;;3.74;95.38
44872;BME280;30602;51.060;17.226;2023-04-07T10:48:08;101680.98;;;3.94;96.24
44872;BME280;30602;51.060;17.226;2023-04-07T10:51:20;101681.97;;;3.99;95.62
44872;BME280;30602;51.060;17.226;2023-04-07T11:02:39;101688.45;;;3.89;96.44
44872;BME280;30602;51.060;17.226;2023-04-07T11:06:28;101687.95;;;3.86;97.02
44872;BME280;30602;51.060;17.226;2023-04-07T11:17:45;101685.45;;;3.87;97.96
44872;BME280;30602;51.060;17.226;2023-04-07T11:21:07;101687.02;;;3.89;98.88
44872;BME280;30602;51.060;17.226;2023-04-07T11:25:21;101683.49;;;3.80;98.39
44872;BME280;30602;51.060;17.226;2023-04-07T11:29:46;101676.47;;;3.75;98.74
44872;BME280;30602;51.060;17.226;2023-04-07T11:33:31;101679.30;;;3.79;98.79
44872;BME280;30602;51.060;17.226;2023-04-07T11:37:59;101677.00;;;3.82;99.00
44872;BME280;30602;51.060;17.226;2023-04-07T11:42:13;101675.74;;;3.85;98.42
44872;BME280;30602;51.060;17.226;2023-04-07T11:45:41;101673.44;;;3.85;98.54
44872;BME280;30602;51.060;17.226;2023-04-07T11:49:12;101653.80;;;3.65;98.26
44872;BME280;30602;51.060;17.226;2023-04-07T11:52:58;101669.31;;;3.76;98.54
44872;BME280;30602;51.060;17.226;2023-04-07T11:56:55;101671.99;;;3.83;98.45
44872;BME280;30602;51.060;17.226;2023-04-07T12:05:11;101654.18;;;3.78;98.12
44872;BME280;30602;51.060;17.226;2023-04-07T12:09:01;101666.89;;;3.92;98.48
44872;BME280;30602;51.060;17.226;2023-04-07T12:12:30;101661.86;;;3.95;98.34
44872;BME280;30602;51.060;17.226;2023-04-07T12:16:29;101662.30;;;3.93;98.17
44872;BME280;30602;51.060;17.226;2023-04-07T12:20:25;101661.05;;;3.98;98.22
44872;BME280;30602;51.060;17.226;2023-04-07T12:24:18;101658.18;;;4.01;98.28
44872;BME280;30602;51.060;17.226;2023-04-07T12:27:43;101659.55;;;4.02;97.37
44872;BME280;30602;51.060;17.226;2023-04-07T12:31:59;101639.78;;;4.05;97.37
44872;BME280;30602;51.060;17.226;2023-04-07T12:36:16;101646.97;;;4.24;97.03
44872;BME280;30602;51.060;17.226;2023-04-07T12:39:56;101643.02;;;4.28;96.50
44872;BME280;30602;51.060;17.226;2023-04-07T12:43:56;101644.50;;;4.29;96.46
44872;BME280;30602;51.060;17.226;2023-04-07T12:47:49;101634.71;;;4.29;96.36
44872;BME280;30602;51.060;17.226;2023-04-07T12:51:38;101644.58;;;4.36;96.59
44872;BME280;30602;51.060;17.226;2023-04-07T12:55:36;101648.43;;;4.28;96.14
44872;BME280;30602;51.060;17.226;2023-04-07T12:59:30;101646.01;;;4.22;95.88
44872;BME280;30602;51.060;17.226;2023-04-07T13:04:04;101634.59;;;4.11;96.67
44872;BME280;30602;51.060;17.226;2023-04-07T13:07:46;101636.49;;;4.18;96.29
44872;BME280;30602;51.060;17.226;2023-04-07T13:11:10;101633.69;;;4.18;96.17
44872;BME280;30602;51.060;17.226;2023-04-07T13:14:41;101633.97;;;4.23;96.56
44872;BME280;30602;51.060;17.226;2023-04-07T13:18:43;101635.06;;;4.24;96.40
44872;BME280;30602;51.060;17.226;2023-04-07T13:22:37;101635.83;;;4.33;95.97
44872;BME280;30602;51.060;17.226;2023-04-07T13:26:54;101644.97;;;4.34;96.14
44872;BME280;30602;51.060;17.226;2023-04-07T13:30:44;101646.34;;;4.36;96.13
44872;BME280;30602;51.060;17.226;2023-04-07T13:35:16;101641.09;;;4.35;96.27
44872;BME280;30602;51.060;17.226;2023-04-07T13:38:59;101640.25;;;4.28;95.96
44872;BME280;30602;51.060;17.226;2023-04-07T13:42:42;101639.81;;;4.23;96.31
44872;BME280;30602;51.060;17.226;2023-04-07T13:46:12;101643.61;;;4.21;97.39
44872;BME280;30602;51.060;17.226;2023-04-07T13:50:14;101631.50;;;4.08;97.19
44872;BME280;30602;51.060;17.226;2023-04-07T13:55:08;101645.73;;;4.16;97.57
44872;BME280;30602;51.060;17.226;2023-04-07T13:58:49;101642.29;;;4.14;97.82
44872;BME280;30602;51.060;17.226;2023-04-07T14:02:39;101641.03;;;4.16;98.76
44872;BME280;30602;51.060;17.226;2023-04-07T14:06:37;101636.54;;;4.15;99.58
44872;BME280;30602;51.060;17.226;2023-04-07T14:10:18;101632.35;;;4.14;100.00
44872;BME280;30602;51.060;17.226;2023-04-07T14:14:24;101646.55;;;4.32;100.00
44872;BME280;30602;51.060;17.226;2023-04-07T14:17:51;101642.43;;;4.30;100.00
44872;BME280;30602;51.060;17.226;2023-04-07T14:21:42;101642.80;;;4.28;100.00
44872;BME280;30602;51.060;17.226;2023-04-07T14:25:35;101642.47;;;4.19;100.00
44872;BME280;30602;51.060;17.226;2023-04-07T14:29:03;101638.21;;;4.16;100.00
44872;BME280;30602;51.060;17.226;2023-04-07T14:33:37;101642.84;;;4.18;100.00
44872;BME280;30602;51.060;17.226;2023-04-07T14:37:35;101628.91;;;4.07;100.00
44872;BME280;30602;51.060;17.226;2023-04-07T14:41:29;101639.38;;;4.12;100.00
44872;BME280;30602;51.060;17.226;2023-04-07T14:45:17;101640.32;;;4.11;100.00
44872;BME280;30602;51.060;17.226;2023-04-07T14:49:24;101646.01;;;4.09;100.00
44872;BME280;30602;51.060;17.226;2023-04-07T14:53:01;101644.50;;;4.12;100.00
44872;BME280;30602;51.060;17.226;2023-04-07T15:00:49;101652.09;;;4.14;100.00
44872;BME280;30602;51.060;17.226;2023-04-07T15:04:22;101651.51;;;4.23;100.00
44872;BME280;30602;51.060;17.226;2023-04-07T15:08:21;101650.70;;;4.28;100.00
44872;BME280;30602;51.060;17.226;2023-04-07T15:13:31;101655.85;;;4.30;100.00
44872;BME280;30602;51.060;17.226;2023-04-07T15:17:01;101658.99;;;4.27;100.00
44872;BME280;30602;51.060;17.226;2023-04-07T15:20:25;101656.87;;;4.25;100.00
44872;BME280;30602;51.060;17.226;2023-04-07T15:24:06;101659.26;;;4.18;100.00
44872;BME280;30602;51.060;17.226;2023-04-07T15:27:56;101666.61;;;4.12;100.00
44872;BME280;30602;51.060;17.226;2023-04-07T15:31:17;101663.63;;;4.06;100.00
44872;BME280;30602;51.060;17.226;2023-04-07T15:35:24;101660.02;;;4.11;100.00
44872;BME280;30602;51.060;17.226;2023-04-07T15:39:05;101651.64;;;4.06;100.00
44872;BME280;30602;51.060;17.226;2023-04-07T15:43:33;101654.82;;;4.14;100.00
44872;BME280;30602;51.060;17.226;2023-04-07T15:47:01;101656.63;;;4.10;100.00
44872;BME280;30602;51.060;17.226;2023-04-07T15:50:52;101653.95;;;4.11;100.00
44872;BME280;30602;51.060;17.226;2023-04-07T15:54:46;101645.25;;;4.17;100.00
44872;BME280;30602;51.060;17.226;2023-04-07T15:58:40;101640.94;;;4.26;100.00
44872;BME280;30602;51.060;17.226;2023-04-07T16:02:53;101625.19;;;4.24;100.00
44872;BME280;30602;51.060;17.226;2023-04-07T16:06:30;101624.28;;;4.23;100.00
44872;BME280;30602;51.060;17.226;2023-04-07T16:10:12;101629.46;;;4.17;100.00
44872;BME280;30602;51.060;17.226;2023-04-07T16:14:06;101629.52;;;4.17;100.00
44872;BME280;30602;51.060;17.226;2023-04-07T16:17:59;101632.20;;;4.22;100.00
44872;BME280;30602;51.060;17.226;2023-04-07T16:21:26;101631.91;;;4.21;100.00
44872;BME280;30602;51.060;17.226;2023-04-07T16:25:18;101627.06;;;4.09;100.00
44872;BME280;30602;51.060;17.226;2023-04-07T16:28:44;101639.06;;;4.18;100.00
44872;BME280;30602;51.060;17.226;2023-04-07T16:32:11;101637.57;;;4.09;100.00
44872;BME280;30602;51.060;17.226;2023-04-07T16:36:24;101604.74;;;3.91;100.00
44872;BME280;30602;51.060;17.226;2023-04-07T16:39:58;101640.14;;;4.10;100.00
44872;BME280;30602;51.060;17.226;2023-04-07T16:43:53;101643.60;;;4.08;100.00
44872;BME280;30602;51.060;17.226;2023-04-07T16:47:25;101623.45;;;4.05;100.00
44872;BME280;30602;51.060;17.226;2023-04-07T16:55:16;101648.89;;;4.27;100.00
44872;BME280;30602;51.060;17.226;2023-04-07T16:58:56;101652.36;;;4.26;100.00
44872;BME280;30602;51.060;17.226;2023-04-07T17:02:52;101653.40;;;4.26;100.00
44872;BME280;30602;51.060;17.226;2023-04-07T17:06:37;101658.79;;;4.27;100.00
44872;BME280;30602;51.060;17.226;2023-04-07T17:10:10;101658.16;;;4.24;100.00
44872;BME280;30602;51.060;17.226;2023-04-07T17:13:56;101662.20;;;4.22;100.00
44872;BME280;30602;51.060;17.226;2023-04-07T17:17:55;101662.65;;;4.20;100.00
44872;BME280;30602;51.060;17.226;2023-04-07T17:21:46;101664.71;;;4.15;100.00
44872;BME280;30602;51.060;17.226;2023-04-07T17:25:11;101671.23;;;4.17;100.00
44872;BME280;30602;51.060;17.226;2023-04-07T17:29:02;101674.36;;;4.17;100.00
44872;BME280;30602;51.060;17.226;2023-04-07T17:32:47;101673.99;;;4.20;100.00
44872;BME280;30602;51.060;17.226;2023-04-07T17:36:19;101678.13;;;4.21;100.00
44872;BME280;30602;51.060;17.226;2023-04-07T17:39:45;101679.10;;;4.23;100.00
44872;BME280;30602;51.060;17.226;2023-04-07T17:43:14;101660.86;;;4.17;100.00
44872;BME280;30602;51.060;17.226;2023-04-07T17:47:09;101690.16;;;4.29;100.00
44872;BME280;30602;51.060;17.226;2023-04-07T17:50:40;101685.34;;;4.32;100.00
44872;BME280;30602;51.060;17.226;2023-04-07T17:54:23;101692.62;;;4.27;100.00
44872;BME280;30602;51.060;17.226;2023-04-07T17:58:16;101695.90;;;4.25;100.00
44872;BME280;30602;51.060;17.226;2023-04-07T18:02:27;101699.92;;;4.25;100.00
44872;BME280;30602;51.060;17.226;2023-04-07T18:05:53;101693.56;;;4.20;100.00
44872;BME280;30602;51.060;17.226;2023-04-07T18:09:17;101692.96;;;4.16;100.00
44872;BME280;30602;51.060;17.226;2023-04-07T18:13:02;101705.05;;;4.23;100.00
44872;BME280;30602;51.060;17.226;2023-04-07T18:16:28;101703.55;;;4.18;100.00
44872;BME280;30602;51.060;17.226;2023-04-07T18:20:17;101706.55;;;4.15;100.00
44872;BME280;30602;51.060;17.226;2023-04-07T18:23:52;101708.05;;;4.16;100.00
44872;BME280;30602;51.060;17.226;2023-04-07T18:27:40;101706.94;;;4.15;100.00
44872;BME280;30602;51.060;17.226;2023-04-07T18:31:04;101694.99;;;4.11;100.00
44872;BME280;30602;51.060;17.226;2023-04-07T18:35:14;101710.96;;;4.24;100.00
44872;BME280;30602;51.060;17.226;2023-04-07T18:38:48;101719.37;;;4.33;100.00
44872;BME280;30602;51.060;17.226;2023-04-07T18:42:20;101720.05;;;4.29;100.00
44872;BME280;30602;51.060;17.226;2023-04-07T18:45:39;101721.07;;;4.29;100.00
44872;BME280;30602;51.060;17.226;2023-04-07T18:48:56;101718.93;;;4.29;100.00
44872;BME280;30602;51.060;17.226;2023-04-07T18:52:49;101712.06;;;4.24;100.00
44872;BME280;30602;51.060;17.226;2023-04-07T18:56:12;101716.09;;;4.26;100.00
44872;BME280;30602;51.060;17.226;2023-04-07T18:59:36;101718.76;;;4.24;100.00
44872;BME280;30602;51.060;17.226;2023-04-07T19:02:58;101722.43;;;4.27;100.00
44872;BME280;30602;51.060;17.226;2023-04-07T19:06:19;101719.91;;;4.20;100.00
44872;BME280;30602;51.060;17.226;2023-04-07T19:09:59;101720.90;;;4.26;100.00
44872;BME280;30602;51.060;17.226;2023-04-07T19:13:52;101719.48;;;4.27;100.00
44872;BME280;30602;51.060;17.226;2023-04-07T19:17:51;101719.34;;;4.26;100.00
44872;BME280;30602;51.060;17.226;2023-04-07T19:21:35;101719.39;;;4.28;100.00
44872;BME280;30602;51.060;17.226;2023-04-07T19:25:21;101721.62;;;4.33;100.00
44872;BME280;30602;51.060;17.226;2023-04-07T19:29:04;101722.59;;;4.38;100.00
44872;BME280;30602;51.060;17.226;2023-04-07T19:32:30;101721.70;;;4.44;100.00
44872;BME280;30602;51.060;17.226;2023-04-07T19:36:21;101715.47;;;4.39;100.00
44872;BME280;30602;51.060;17.226;2023-04-07T19:39:48;101719.38;;;4.39;100.00
44872;BME280;30602;51.060;17.226;2023-04-07T19:43:46;101717.98;;;4.36;100.00
44872;BME280;30602;51.060;17.226;2023-04-07T19:47:30;101722.77;;;4.38;100.00
44872;BME280;30602;51.060;17.226;2023-04-07T19:50:51;101726.30;;;4.35;100.00
44872;BME280;30602;51.060;17.226;2023-04-07T19:54:12;101722.12;;;4.32;100.00
44872;BME280;30602;51.060;17.226;2023-04-07T19:57:31;101710.31;;;4.22;100.00
44872;BME280;30602;51.060;17.226;2023-04-07T20:01:17;101721.76;;;4.33;100.00
44872;BME280;30602;51.060;17.226;2023-04-07T20:04:45;101716.44;;;4.29;100.00
44872;BME280;30602;51.060;17.226;2023-04-07T20:08:06;101722.72;;;4.34;100.00
44872;BME280;30602;51.060;17.226;2023-04-07T20:11:29;101723.24;;;4.30;100.00
44872;BME280;30602;51.060;17.226;2023-04-07T20:16:02;101714.61;;;4.23;100.00
44872;BME280;30602;51.060;17.226;2023-04-07T20:19:23;101729.07;;;4.39;100.00
44872;BME280;30602;51.060;17.226;2023-04-07T20:23:07;101729.35;;;4.40;100.00
44872;BME280;30602;51.060;17.226;2023-04-07T20:26:31;101723.21;;;4.38;100.00
44872;BME280;30602;51.060;17.226;2023-04-07T20:30:10;101698.61;;;4.23;100.00
44872;BME280;30602;51.060;17.226;2023-04-07T20:33:53;101728.18;;;4.38;100.00
44872;BME280;30602;51.060;17.226;2023-04-07T20:37:13;101724.22;;;4.37;100.00
44872;BME280;30602;51.060;17.226;2023-04-07T20:41:36;101715.01;;;4.40;100.00
44872;BME280;30602;51.060;17.226;2023-04-07T20:45:05;101722.28;;;4.40;100.00